Saimaagracht — PHCQ — position and weather

sailwx.info

Track history (hours):
 
Tides and Currents Weather Stations Pressure Air Temp Water Temp Dewpoint Dewpoint Depression Visibility Wind Speed Wind Dir Waves Ship Positions

Saimaagracht

Last reported at 2019-Jun-20 06:00 UTC. Time now 2019-Jun-20 17:16 UTC.
Position N 57°18' W 010°18'.

Length 173 m; beam 26 m.

Type: Cargo ship. MMSI: 246293000.

Wind from 300 at 23 knots

Barometer 1001.7 mb
Air temperature 10.7 ° C
Visibility: greater than 27.0 NM
Dewpoint 7.5 ° C
Water temperature 11.0 ° C

Date/timePositionNaut miles runAvg speedWind from/ knotsBaromVisibWave heightAir tempDewpointWater temp
2019-Jun-20 06:00N 57°18' W 010°18'10717.9 300 / 231001.727.0 10.7 7.511.0
2019-Jun-20 00:00N 58°30' W 007°48'11112.7 240 / 10999.7 5.4 11.010.110.9
2019-Jun-19 15:17N 58°43' W 004°17'815.1
2019-Jun-19 14:43N 58°43' W 004°00'315.1
2019-Jun-19 14:31N 58°43' W 003°54'714.8
2019-Jun-19 14:00N 58°43' W 003°40'814.6
2019-Jun-19 13:28N 58°43' W 003°25'814.5
2019-Jun-19 12:56N 58°43' W 003°10'612.9
2019-Jun-19 12:30N 58°43' W 002°59'15913.8
2019-Jun-19 00:59N 58°19' E 002°02'713.7
2019-Jun-19 00:30N 58°18' E 002°15'713.7
2019-Jun-19 00:00N 58°17' E 002°27'1413.7
2019-Jun-18 23:01N 58°15' E 002°53'713.9
2019-Jun-18 22:31N 58°13' E 003°06'713.8
2019-Jun-18 22:00N 58°12' E 003°19'713.7
2019-Jun-18 21:30N 58°10' E 003°31'713.6
2019-Jun-18 20:59N 58°09' E 003°45'713.8
2019-Jun-18 20:30N 58°08' E 003°57'713.7
2019-Jun-18 20:00N 58°06' E 004°10'713.6
2019-Jun-18 19:30N 58°05' E 004°22'713.7
2019-Jun-18 19:00N 58°04' E 004°35'713.7
2019-Jun-18 18:30N 58°02' E 004°48'713.9
2019-Jun-18 18:00N 58°00' E 005°00'714.2
2019-Jun-18 17:30N 57°59' E 005°14'713.9
2019-Jun-18 17:00N 57°58' E 005°26'714.1
2019-Jun-18 16:30N 57°56' E 005°39'714.7
2019-Jun-18 16:00N 57°55' E 005°53'714.1
2019-Jun-18 15:30N 57°53' E 006°06'713.8
2019-Jun-18 15:00N 57°51' E 006°19'714.2
2019-Jun-18 14:30N 57°50' E 006°32'713.9
2019-Jun-18 14:00N 57°48' E 006°44'714.5
2019-Jun-18 13:30N 57°48' E 006°57'714.3
2019-Jun-18 13:00N 57°47' E 007°11'714.3
2019-Jun-18 12:30N 57°47' E 007°25'714.1
2019-Jun-18 12:01N 57°47' E 007°38'714.2
2019-Jun-18 11:30N 57°46' E 007°51'714.4
2019-Jun-18 11:01N 57°46' E 008°04'714.0
2019-Jun-18 10:31N 57°46' E 008°17'713.9
2019-Jun-18 10:00N 57°46' E 008°31'713.8
2019-Jun-18 09:30N 57°47' E 008°43'713.6
2019-Jun-18 09:00N 57°47' E 008°56'713.4
2019-Jun-18 08:30N 57°47' E 009°09'613.0
2019-Jun-18 08:00N 57°48' E 009°21'713.1
2019-Jun-18 07:30N 57°48' E 009°33'713.5
2019-Jun-18 07:00N 57°48' E 009°46'913.8
2019-Jun-18 06:23N 57°48' E 010°02'513.8
2019-Jun-18 06:00N 57°48' E 010°12'713.8
2019-Jun-18 05:30N 57°48' E 010°25'612.7
2019-Jun-18 05:00N 57°48' E 010°37'611.6
2019-Jun-18 04:31N 57°47' E 010°47'713.7
2019-Jun-18 04:01N 57°43' E 010°57'714.0
2019-Jun-18 03:31N 57°38' E 011°07'714.3
2019-Jun-18 03:00N 57°33' E 011°16'714.3
2019-Jun-18 02:30N 57°28' E 011°26'715.0
2019-Jun-18 02:01N 57°21' E 011°30'715.0
2019-Jun-18 01:31N 57°14' E 011°35'714.8
2019-Jun-18 01:01N 57°07' E 011°40'2314.6
2019-Jun-17 23:26N 56°45' E 011°54'3014.3
2019-Jun-17 21:20N 56°19' E 011°26'179 8.2
2019-Jun-16 23:30N 54°46' E 015°56'4413.5
2019-Jun-16 20:15N 54°53' E 017°11'413.4
2019-Jun-16 19:59N 54°54' E 017°17'613.6
2019-Jun-16 19:30N 54°56' E 017°28'813.5
2019-Jun-16 18:56N 54°57' E 017°41'713.3
2019-Jun-16 18:23N 54°58' E 017°54'1013.1
2019-Jun-16 17:38N 54°58' E 018°11'213.0
2019-Jun-16 17:30N 54°58' E 018°14'713.3
2019-Jun-16 17:00N 54°58' E 018°25'612.9
2019-Jun-16 16:30N 54°56' E 018°36'612.7
2019-Jun-16 16:00N 54°52' E 018°45'612.2
2019-Jun-16 15:30N 54°49' E 018°54'611.4
2019-Jun-16 15:01N 54°43' E 018°58'714.2
2019-Jun-16 14:31N 54°37' E 018°55'713.7
2019-Jun-16 14:01N 54°32' E 018°47'611.8
2019-Jun-16 13:30N 54°32' E 018°37'3 6.2
2019-Jun-16 13:01N 54°32' E 018°31'1 1.1
2019-Jun-16 12:27N 54°33' E 018°30'0 0.0
2019-Jun-16 11:57N 54°33' E 018°30'0 0.0
2019-Jun-16 11:27N 54°33' E 018°30'0 0.0
2019-Jun-16 11:00N 54°33' E 018°30'0 0.0
2019-Jun-16 10:30N 54°33' E 018°30'0 0.0
2019-Jun-16 09:59N 54°33' E 018°30'0 0.0
2019-Jun-16 09:29N 54°33' E 018°30'0 0.0
2019-Jun-16 08:59N 54°33' E 018°30'0 0.0
2019-Jun-16 08:29N 54°33' E 018°30'0 0.0
2019-Jun-16 07:59N 54°33' E 018°30'0 0.0
2019-Jun-16 07:29N 54°33' E 018°30'0 0.0
2019-Jun-16 06:59N 54°33' E 018°30'0 0.0
2019-Jun-16 06:26N 54°33' E 018°30'0 0.0
2019-Jun-16 05:59N 54°33' E 018°30'0 0.0
2019-Jun-16 05:29N 54°33' E 018°30'0 0.0
2019-Jun-16 04:59N 54°33' E 018°30'0 0.0
2019-Jun-16 04:29N 54°33' E 018°30'0 0.0
2019-Jun-16 03:59N 54°33' E 018°30'0 0.0
2019-Jun-16 03:29N 54°33' E 018°30'0 0.0
2019-Jun-16 02:59N 54°33' E 018°30'0 0.0
2019-Jun-16 02:29N 54°33' E 018°30'0 0.0
2019-Jun-16 01:59N 54°33' E 018°30'0 0.0
2019-Jun-16 01:29N 54°33' E 018°30'0 0.0
2019-Jun-16 00:59N 54°33' E 018°30'0 0.0
2019-Jun-16 00:29N 54°33' E 018°30'0 0.0
2019-Jun-15 23:59N 54°33' E 018°30'0 0.0
2019-Jun-15 23:29N 54°33' E 018°30'0 0.0
2019-Jun-15 22:59N 54°33' E 018°30'0 0.0
2019-Jun-15 22:29N 54°33' E 018°30'0 0.0
2019-Jun-15 21:59N 54°33' E 018°30'0 0.0
2019-Jun-15 21:29N 54°33' E 018°30'0 0.0
2019-Jun-15 20:59N 54°33' E 018°30'0 0.0
2019-Jun-15 20:29N 54°33' E 018°30'0 0.0
2019-Jun-15 19:59N 54°33' E 018°30'0 0.0
2019-Jun-15 19:29N 54°33' E 018°30'0 0.0
2019-Jun-15 18:59N 54°33' E 018°30'0 0.0
2019-Jun-15 18:29N 54°33' E 018°30'0 0.0
2019-Jun-15 17:59N 54°33' E 018°30'0 0.0
2019-Jun-15 17:29N 54°33' E 018°30'0 0.0
2019-Jun-15 16:59N 54°33' E 018°30'0 0.0
2019-Jun-15 16:29N 54°33' E 018°30'0 0.0
2019-Jun-15 15:59N 54°33' E 018°30'0 0.0
2019-Jun-15 15:29N 54°33' E 018°30'0 0.0
2019-Jun-15 14:56N 54°33' E 018°30'0 0.0
2019-Jun-15 14:29N 54°33' E 018°30'0 0.0
2019-Jun-15 13:59N 54°33' E 018°30'0 0.0
2019-Jun-15 13:26N 54°33' E 018°30'0 0.0
2019-Jun-15 12:59N 54°33' E 018°30'0 0.0
2019-Jun-15 12:26N 54°33' E 018°30'0 0.0
2019-Jun-15 11:59N 54°33' E 018°30'0 0.0
2019-Jun-15 11:29N 54°33' E 018°30'0 0.0
2019-Jun-15 10:59N 54°33' E 018°30'0 0.0
2019-Jun-15 10:29N 54°33' E 018°30'0 0.0
2019-Jun-15 09:59N 54°33' E 018°30'0 0.0
2019-Jun-15 09:29N 54°33' E 018°30'0 0.0
2019-Jun-15 08:59N 54°33' E 018°30'0 0.0
2019-Jun-15 08:29N 54°33' E 018°30'0 0.0
2019-Jun-15 07:59N 54°33' E 018°30'0 0.0
2019-Jun-15 07:29N 54°33' E 018°30'0 0.0
2019-Jun-15 06:56N 54°33' E 018°30'0 0.0
2019-Jun-15 06:29N 54°33' E 018°30'0 0.0
2019-Jun-15 05:59N 54°33' E 018°30'0 0.0
2019-Jun-15 05:29N 54°33' E 018°30'0 0.0
2019-Jun-15 04:56N 54°33' E 018°30'0 0.0
2019-Jun-15 04:29N 54°33' E 018°30'0 0.0
2019-Jun-15 03:59N 54°33' E 018°30'0 0.0
2019-Jun-15 03:29N 54°33' E 018°30'0 0.0
2019-Jun-15 02:59N 54°33' E 018°30'0 0.0
2019-Jun-15 02:26N 54°33' E 018°30'0 0.0
2019-Jun-15 01:59N 54°33' E 018°30'0 0.0
2019-Jun-15 01:29N 54°33' E 018°30'0 0.0
2019-Jun-15 00:59N 54°33' E 018°30'0 0.0
2019-Jun-15 00:26N 54°33' E 018°30'0 0.0
2019-Jun-14 23:59N 54°33' E 018°30'0 0.0
2019-Jun-14 23:29N 54°33' E 018°30'0 0.0
2019-Jun-14 22:58N 54°33' E 018°30'0 0.0
2019-Jun-14 22:28N 54°33' E 018°30'0 0.0
2019-Jun-14 21:58N 54°33' E 018°30'0 0.0
2019-Jun-14 21:28N 54°33' E 018°30'0 0.0
2019-Jun-14 20:58N 54°33' E 018°30'0 0.0
2019-Jun-14 20:25N 54°33' E 018°30'0 0.0
2019-Jun-14 19:58N 54°33' E 018°30'0 0.0
2019-Jun-14 19:28N 54°33' E 018°30'0 0.0
2019-Jun-14 18:58N 54°33' E 018°30'0 0.0
2019-Jun-14 18:22N 54°33' E 018°30'0 0.0
2019-Jun-14 17:58N 54°33' E 018°30'0 0.0
2019-Jun-14 17:28N 54°33' E 018°30'0 0.0
2019-Jun-14 16:58N 54°33' E 018°30'0 0.0
2019-Jun-14 16:28N 54°33' E 018°30'0 0.0
2019-Jun-14 15:58N 54°33' E 018°30'0 0.0
2019-Jun-14 15:28N 54°33' E 018°30'0 0.0
2019-Jun-14 14:58N 54°33' E 018°30'0 0.0
2019-Jun-14 14:28N 54°33' E 018°30'0 0.0
2019-Jun-14 13:58N 54°33' E 018°30'0 0.0
2019-Jun-14 13:28N 54°33' E 018°30'0 0.0
2019-Jun-14 12:58N 54°33' E 018°30'0 0.0
2019-Jun-14 12:28N 54°33' E 018°30'0 0.0
2019-Jun-14 11:58N 54°33' E 018°30'0 0.0
2019-Jun-14 11:25N 54°33' E 018°30'0 0.0
2019-Jun-14 10:55N 54°33' E 018°30'0 0.0
2019-Jun-14 10:25N 54°33' E 018°30'0 0.0
2019-Jun-14 09:58N 54°33' E 018°30'0 0.0
2019-Jun-14 09:22N 54°33' E 018°30'0 0.0
2019-Jun-14 08:55N 54°33' E 018°30'0 0.0
2019-Jun-14 08:25N 54°33' E 018°30'0 0.0
2019-Jun-14 07:55N 54°33' E 018°30'0 0.0
2019-Jun-14 07:25N 54°33' E 018°30'0 0.0
2019-Jun-14 06:58N 54°33' E 018°30'0 0.0
2019-Jun-14 06:28N 54°33' E 018°30'0 0.0
2019-Jun-14 05:55N 54°33' E 018°30'0 0.1
2019-Jun-14 05:31N 54°33' E 018°30'1 2.9
2019-Jun-14 05:01N 54°32' E 018°33'4 7.6
2019-Jun-14 04:31N 54°31' E 018°39'0 0.4
2019-Jun-14 03:58N 54°31' E 018°39'0 0.1
2019-Jun-14 03:28N 54°31' E 018°39'0 0.1
2019-Jun-14 02:58N 54°31' E 018°39'0 0.0
2019-Jun-14 02:28N 54°31' E 018°39'0 0.1
2019-Jun-14 01:58N 54°31' E 018°39'0 0.1
2019-Jun-14 01:28N 54°31' E 018°39'0 0.1
2019-Jun-14 00:58N 54°31' E 018°39'0 0.0
2019-Jun-14 00:28N 54°31' E 018°39'0 0.0
2019-Jun-13 23:58N 54°31' E 018°39'0 0.0
2019-Jun-13 23:28N 54°31' E 018°39'0 0.0
2019-Jun-13 22:58N 54°31' E 018°39'0 0.3
2019-Jun-13 22:28N 54°31' E 018°39'0 0.2
2019-Jun-13 21:58N 54°31' E 018°39'0 0.0
2019-Jun-13 21:25N 54°31' E 018°39'0 1.0
2019-Jun-13 21:01N 54°31' E 018°39'611.2
2019-Jun-13 20:31N 54°33' E 018°49'713.7
2019-Jun-13 20:00N 54°39' E 018°55'713.4
2019-Jun-13 19:30N 54°45' E 018°58'713.7
2019-Jun-13 19:00N 54°52' E 018°59'714.0
2019-Jun-13 18:30N 54°59' E 019°01'714.3
2019-Jun-13 18:00N 55°06' E 019°02'2913.6
2019-Jun-13 15:52N 55°35' E 019°09'25311.4
2019-Jun-12 17:39N 59°47' E 019°40'212.4
2019-Jun-12 17:30N 59°49' E 019°38'612.3
2019-Jun-12 17:00N 59°53' E 019°30'611.9
2019-Jun-12 16:30N 59°58' E 019°22'611.4
2019-Jun-12 16:00N 60°02' E 019°15'611.4
2019-Jun-12 15:30N 60°07' E 019°07'613.0
2019-Jun-12 15:00N 60°12' E 018°60'714.4
2019-Jun-12 14:30N 60°19' E 018°60'612.8
2019-Jun-12 14:01N 60°25' E 018°59'611.2
2019-Jun-12 13:30N 60°31' E 019°02'6512.2
2019-Jun-12 08:09N 61°07' E 020°54'212.3
2019-Jun-12 08:00N 61°08' E 020°57'510.0
2019-Jun-12 07:30N 61°08' E 021°07'5 9.8
2019-Jun-12 07:01N 61°06' E 021°16'4 8.9
2019-Jun-12 06:30N 61°07' E 021°25'0 0.7
2019-Jun-12 06:00N 61°08' E 021°26'0 0.0
2019-Jun-12 05:30N 61°08' E 021°26'0 0.0
2019-Jun-12 05:00N 61°08' E 021°26'0 0.0
2019-Jun-12 04:30N 61°08' E 021°26'0 0.0
2019-Jun-12 04:00N 61°08' E 021°26'0 0.0
2019-Jun-12 03:30N 61°08' E 021°26'0 0.0
2019-Jun-12 03:00N 61°08' E 021°26'0 0.0
2019-Jun-12 01:57N 61°08' E 021°26'0 0.0
2019-Jun-12 01:30N 61°08' E 021°26'0 0.0
2019-Jun-12 00:57N 61°08' E 021°26'0 0.0
2019-Jun-12 00:27N 61°08' E 021°26'0 0.0
2019-Jun-11 23:54N 61°08' E 021°26'0 0.0
2019-Jun-11 23:30N 61°08' E 021°26'0 0.0
2019-Jun-11 23:00N 61°08' E 021°26'0 0.0
2019-Jun-11 22:29N 61°08' E 021°26'0 0.0
2019-Jun-11 21:59N 61°08' E 021°26'0 0.0
2019-Jun-11 21:29N 61°08' E 021°26'0 0.0
2019-Jun-11 20:59N 61°08' E 021°26'0 0.0
2019-Jun-11 20:29N 61°08' E 021°26'0 0.0
2019-Jun-11 19:59N 61°08' E 021°26'0 0.0
2019-Jun-11 19:29N 61°08' E 021°26'0 0.0
2019-Jun-11 18:59N 61°08' E 021°26'0 0.0
2019-Jun-11 18:26N 61°08' E 021°26'0 0.0
2019-Jun-11 17:56N 61°08' E 021°26'0 0.0
2019-Jun-11 17:29N 61°08' E 021°26'0 0.0
2019-Jun-11 16:56N 61°08' E 021°26'0 0.0
2019-Jun-11 16:29N 61°08' E 021°26'0 0.0
2019-Jun-11 15:56N 61°08' E 021°26'0 0.0
2019-Jun-11 15:29N 61°08' E 021°26'0 0.0
2019-Jun-11 14:56N 61°08' E 021°26'0 0.0
2019-Jun-11 14:26N 61°08' E 021°26'0 0.0
2019-Jun-11 13:56N 61°08' E 021°26'0 0.0
2019-Jun-11 13:29N 61°08' E 021°26'0 0.0
2019-Jun-11 12:56N 61°08' E 021°26'0 0.0
2019-Jun-11 12:26N 61°08' E 021°26'0 0.0
2019-Jun-11 11:56N 61°08' E 021°26'0 0.0
2019-Jun-11 11:29N 61°08' E 021°26'0 0.0
2019-Jun-11 10:59N 61°08' E 021°26'0 0.0
2019-Jun-11 10:29N 61°08' E 021°26'0 0.0
2019-Jun-11 09:59N 61°08' E 021°26'0 0.0
2019-Jun-11 09:29N 61°08' E 021°26'0 0.0
2019-Jun-11 08:59N 61°08' E 021°26'0 0.0
2019-Jun-11 08:29N 61°08' E 021°26'0 0.0
2019-Jun-11 07:59N 61°08' E 021°26'0 0.0
2019-Jun-11 07:29N 61°08' E 021°26'0 0.0
2019-Jun-11 06:59N 61°08' E 021°26'0 0.0
2019-Jun-11 06:29N 61°08' E 021°26'0 0.0
2019-Jun-11 05:59N 61°08' E 021°26'0 0.0
2019-Jun-11 05:29N 61°08' E 021°26'0 0.0
2019-Jun-11 04:59N 61°08' E 021°26'0 0.0
2019-Jun-11 04:29N 61°08' E 021°26'0 0.0
2019-Jun-11 03:59N 61°08' E 021°26'0 0.0
2019-Jun-11 03:29N 61°08' E 021°26'0 0.0
2019-Jun-11 02:59N 61°08' E 021°26'0 0.0
2019-Jun-11 02:29N 61°08' E 021°26'0 0.0
2019-Jun-11 01:59N 61°08' E 021°26'0 0.0
2019-Jun-11 01:29N 61°08' E 021°26'0 0.0
2019-Jun-11 00:59N 61°08' E 021°26'0 0.0
2019-Jun-11 00:29N 61°08' E 021°26'0 0.0
2019-Jun-10 23:59N 61°08' E 021°26'0 0.0
2019-Jun-10 23:29N 61°08' E 021°26'0 0.0
2019-Jun-10 22:59N 61°08' E 021°26'0 0.0
2019-Jun-10 22:29N 61°08' E 021°26'0 0.0
2019-Jun-10 21:59N 61°08' E 021°26'0 0.0
2019-Jun-10 21:29N 61°08' E 021°26'0 0.2
2019-Jun-10 20:59N 61°08' E 021°26'0 0.0
2019-Jun-10 20:29N 61°08' E 021°26'0 0.0
2019-Jun-10 19:59N 61°08' E 021°26'0 0.0
2019-Jun-10 19:26N 61°08' E 021°26'0 0.0
2019-Jun-10 18:59N 61°08' E 021°26'0 0.0
2019-Jun-10 18:29N 61°08' E 021°26'0 0.0
2019-Jun-10 17:59N 61°08' E 021°26'0 0.0
2019-Jun-10 17:29N 61°08' E 021°26'0 0.0
2019-Jun-10 16:59N 61°08' E 021°26'0 0.0
2019-Jun-10 16:29N 61°08' E 021°26'0 0.0
2019-Jun-10 15:59N 61°08' E 021°26'0 0.0
2019-Jun-10 15:29N 61°08' E 021°26'0 0.0
2019-Jun-10 14:59N 61°08' E 021°26'0 0.0
2019-Jun-10 14:29N 61°08' E 021°26'0 0.0
2019-Jun-10 13:59N 61°08' E 021°26'0 0.0
2019-Jun-10 13:29N 61°08' E 021°26'0 0.0
2019-Jun-10 12:59N 61°08' E 021°26'0 0.0
2019-Jun-10 12:29N 61°08' E 021°26'0 0.0
2019-Jun-10 11:59N 61°08' E 021°26'0 0.0
2019-Jun-10 11:29N 61°08' E 021°26'0 0.0
2019-Jun-10 10:58N 61°08' E 021°26'0 0.0
2019-Jun-10 10:28N 61°08' E 021°26'0 0.0
2019-Jun-10 09:58N 61°08' E 021°26'0 0.0
2019-Jun-10 09:29N 61°08' E 021°26'0 0.0
2019-Jun-10 08:58N 61°08' E 021°26'0 0.0
2019-Jun-10 08:28N 61°08' E 021°26'0 0.0
2019-Jun-10 07:58N 61°08' E 021°26'0 0.0
2019-Jun-10 07:28N 61°08' E 021°26'0 0.0
2019-Jun-10 06:58N 61°08' E 021°26'0 0.0
2019-Jun-10 06:28N 61°08' E 021°26'0 0.0
2019-Jun-10 05:58N 61°08' E 021°26'0 0.0
2019-Jun-10 05:28N 61°08' E 021°26'0 0.0
2019-Jun-10 04:55N 61°08' E 021°26'0 0.0
2019-Jun-10 04:28N 61°08' E 021°26'0 0.0
2019-Jun-10 03:55N 61°08' E 021°26'0 0.0
2019-Jun-10 03:22N 61°08' E 021°26'0 0.0
2019-Jun-10 02:58N 61°08' E 021°26'0 0.0
2019-Jun-10 02:22N 61°08' E 021°26'0 0.0
2019-Jun-10 01:43N 61°08' E 021°26'0 0.0
2019-Jun-10 01:28N 61°08' E 021°26'0 0.0
2019-Jun-10 00:55N 61°08' E 021°26'0 0.0
2019-Jun-10 00:28N 61°08' E 021°26'0 0.0
2019-Jun-09 23:55N 61°08' E 021°26'0 0.0
2019-Jun-09 23:25N 61°08' E 021°26'0 0.0
2019-Jun-09 22:58N 61°08' E 021°26'0 0.0
2019-Jun-09 22:28N 61°08' E 021°26'0 0.0
2019-Jun-09 21:58N 61°08' E 021°26'0 0.0
2019-Jun-09 21:28N 61°08' E 021°26'0 0.0
2019-Jun-09 20:58N 61°08' E 021°26'0 0.0
2019-Jun-09 20:28N 61°08' E 021°26'0 0.0
2019-Jun-09 19:58N 61°08' E 021°26'0 0.0
2019-Jun-09 19:28N 61°08' E 021°26'0 0.0
2019-Jun-09 18:58N 61°08' E 021°26'0 0.0
2019-Jun-09 18:25N 61°08' E 021°26'0 0.0
2019-Jun-09 17:55N 61°08' E 021°26'0 0.0
2019-Jun-09 17:28N 61°08' E 021°26'0 0.0
2019-Jun-09 16:55N 61°08' E 021°26'0 0.0
2019-Jun-09 16:25N 61°08' E 021°26'0 0.0
2019-Jun-09 15:58N 61°08' E 021°26'0 0.0
2019-Jun-09 15:25N 61°08' E 021°26'0 0.0
2019-Jun-09 14:49N 61°08' E 021°26'0 0.0
2019-Jun-09 14:28N 61°08' E 021°26'0 0.0
2019-Jun-09 13:58N 61°08' E 021°26'0 0.0
2019-Jun-09 13:28N 61°08' E 021°26'0 0.0
2019-Jun-09 12:46N 61°08' E 021°26'0 0.0
2019-Jun-09 12:28N 61°08' E 021°26'0 0.0
2019-Jun-09 11:58N 61°08' E 021°26'0 0.0
2019-Jun-09 11:28N 61°08' E 021°26'0 0.0
2019-Jun-09 10:58N 61°08' E 021°26'0 0.0
2019-Jun-09 10:28N 61°08' E 021°26'0 0.0
2019-Jun-09 09:58N 61°08' E 021°26'0 0.0
2019-Jun-09 09:28N 61°08' E 021°26'0 0.0
2019-Jun-09 08:58N 61°08' E 021°26'0 0.0
2019-Jun-09 08:28N 61°08' E 021°26'0 0.0
2019-Jun-09 07:58N 61°08' E 021°26'0 0.0
2019-Jun-09 07:28N 61°08' E 021°26'0 0.0
2019-Jun-09 06:58N 61°08' E 021°26'0 0.0
2019-Jun-09 06:28N 61°08' E 021°26'0 0.0
2019-Jun-09 05:58N 61°08' E 021°26'0 0.0
2019-Jun-09 05:28N 61°08' E 021°26'0 0.0
2019-Jun-09 04:58N 61°08' E 021°26'0 0.0
2019-Jun-09 03:58N 61°08' E 021°26'0 0.0
2019-Jun-09 03:28N 61°08' E 021°26'0 0.0
2019-Jun-09 02:58N 61°08' E 021°26'0 0.0
2019-Jun-09 02:31N 61°08' E 021°26'0 0.0
2019-Jun-09 01:58N 61°08' E 021°26'0 0.0
2019-Jun-09 01:31N 61°08' E 021°26'0 0.0
2019-Jun-09 01:01N 61°08' E 021°26'0 0.0
2019-Jun-09 00:31N 61°08' E 021°26'0 0.0
2019-Jun-09 00:00N 61°08' E 021°26'0 0.0
2019-Jun-08 23:30N 61°08' E 021°26'0 0.0
2019-Jun-08 23:00N 61°08' E 021°26'0 0.0
2019-Jun-08 22:30N 61°08' E 021°26'0 0.0
2019-Jun-08 22:00N 61°08' E 021°26'0 0.0
2019-Jun-08 21:30N 61°08' E 021°26'0 0.0
2019-Jun-08 21:00N 61°08' E 021°26'0 0.0
2019-Jun-08 20:30N 61°08' E 021°26'0 0.0
2019-Jun-08 20:00N 61°08' E 021°26'0 0.0
2019-Jun-08 19:30N 61°08' E 021°26'0 0.0
2019-Jun-08 19:00N 61°08' E 021°26'0 0.0
2019-Jun-08 18:30N 61°08' E 021°26'0 0.0
2019-Jun-08 18:00N 61°08' E 021°26'0 0.0
2019-Jun-08 17:27N 61°08' E 021°26'0 0.0
2019-Jun-08 17:00N 61°08' E 021°26'0 0.0
2019-Jun-08 16:30N 61°08' E 021°26'0 0.0
2019-Jun-08 16:00N 61°08' E 021°26'0 0.0
2019-Jun-08 15:18N 61°08' E 021°26'0 0.0
2019-Jun-08 14:51N 61°08' E 021°26'0 0.0
2019-Jun-08 13:51N 61°08' E 021°26'0 0.0
2019-Jun-08 13:18N 61°08' E 021°26'0 0.0
2019-Jun-08 12:54N 61°08' E 021°26'0 0.0
2019-Jun-08 12:18N 61°08' E 021°26'0 0.0
2019-Jun-08 12:00N 61°08' E 021°26'0 0.0
2019-Jun-08 11:30N 61°08' E 021°26'0 0.0
2019-Jun-08 11:00N 61°08' E 021°26'0 0.0
2019-Jun-08 10:30N 61°08' E 021°26'0 0.0
2019-Jun-08 10:00N 61°08' E 021°26'0 0.0
2019-Jun-08 09:30N 61°08' E 021°26'0 0.0
2019-Jun-08 09:00N 61°08' E 021°26'0 0.0
2019-Jun-08 08:30N 61°08' E 021°26'0 0.0
2019-Jun-08 08:00N 61°08' E 021°26'0 0.0
2019-Jun-08 07:30N 61°08' E 021°26'0 0.0
2019-Jun-08 07:00N 61°08' E 021°26'0 0.0
2019-Jun-08 06:30N 61°08' E 021°26'0 0.0
2019-Jun-08 06:00N 61°08' E 021°26'0 0.0
2019-Jun-08 05:30N 61°08' E 021°26'0 0.0
2019-Jun-08 05:00N 61°08' E 021°26'0 0.0
2019-Jun-08 04:30N 61°08' E 021°26'0 0.0
2019-Jun-08 04:00N 61°08' E 021°26'0 0.0
2019-Jun-08 03:30N 61°08' E 021°26'0 0.0
2019-Jun-08 03:00N 61°08' E 021°26'0 0.0
2019-Jun-08 02:30N 61°08' E 021°26'0 0.0
2019-Jun-08 02:00N 61°08' E 021°26'0 0.0
2019-Jun-08 01:30N 61°08' E 021°26'0 0.0
2019-Jun-08 01:00N 61°08' E 021°26'0 0.0
2019-Jun-08 00:30N 61°08' E 021°26'0 0.0
2019-Jun-08 00:00N 61°08' E 021°26'0 0.0
2019-Jun-07 23:30N 61°08' E 021°26'0 0.0
2019-Jun-07 23:00N 61°08' E 021°26'0 0.0
2019-Jun-07 22:30N 61°08' E 021°26'0 0.0
2019-Jun-07 22:00N 61°08' E 021°26'0 0.0
2019-Jun-07 21:30N 61°08' E 021°26'0 0.0
2019-Jun-07 21:00N 61°08' E 021°26'0 0.0
2019-Jun-07 20:30N 61°08' E 021°26'0 0.0
2019-Jun-07 20:00N 61°08' E 021°26'0 0.0
2019-Jun-07 19:30N 61°08' E 021°26'0 0.0
2019-Jun-07 19:00N 61°08' E 021°26'0 0.0
2019-Jun-07 18:30N 61°08' E 021°26'0 0.0
2019-Jun-07 18:00N 61°08' E 021°26'0 0.0
2019-Jun-07 17:30N 61°08' E 021°26'0 0.0
2019-Jun-07 16:57N 61°08' E 021°26'0 0.0
2019-Jun-07 16:27N 61°08' E 021°26'0 0.0
2019-Jun-07 15:57N 61°08' E 021°26'0 0.0
2019-Jun-07 15:27N 61°08' E 021°26'0 0.0
2019-Jun-07 14:57N 61°08' E 021°26'0 0.0
2019-Jun-07 14:30N 61°08' E 021°26'0 0.0
2019-Jun-07 14:00N 61°08' E 021°26'0 0.0
2019-Jun-07 13:29N 61°08' E 021°26'0 0.0
2019-Jun-07 12:59N 61°08' E 021°26'0 0.0
2019-Jun-07 12:26N 61°08' E 021°26'0 0.0
2019-Jun-07 11:57N 61°08' E 021°26'0 0.0
2019-Jun-07 11:29N 61°08' E 021°26'0 0.0
2019-Jun-07 10:59N 61°08' E 021°26'0 0.0
2019-Jun-07 10:29N 61°08' E 021°26'0 0.0
2019-Jun-07 09:59N 61°08' E 021°26'0 0.0
2019-Jun-07 09:29N 61°08' E 021°26'0 0.0
2019-Jun-07 08:56N 61°08' E 021°26'0 0.0
2019-Jun-07 08:30N 61°08' E 021°26'2 4.8
2019-Jun-07 08:01N 61°06' E 021°22'611.5
2019-Jun-07 07:31N 61°07' E 021°10'612.2
2019-Jun-07 07:01N 61°11' E 021°00'  
Track history (hours):
 
Tides and Currents Weather Stations Pressure Air Temp Water Temp Dewpoint Dewpoint Depression Visibility Wind Speed Wind Dir Waves Ship Positions

Saimaagracht

Last reported at 2019-Jun-20 06:00 UTC. Time now 2019-Jun-20 17:16 UTC.
Position N 57°18' W 010°18'.

Length 173 m; beam 26 m.

Type: Cargo ship. MMSI: 246293000.

Wind from 300 at 23 knots

Barometer 1001.7 mb
Air temperature 10.7 ° C
Visibility: greater than 27.0 NM
Dewpoint 7.5 ° C
Water temperature 11.0 ° C

Date/timePositionNaut miles runAvg speedWind from/ knotsBaromVisibWave heightAir tempDewpointWater temp
2019-Jun-20 06:00N 57°18' W 010°18'10717.9 300 / 231001.727.0 10.7 7.511.0
2019-Jun-20 00:00N 58°30' W 007°48'11112.7 240 / 10999.7 5.4 11.010.110.9
2019-Jun-19 15:17N 58°43' W 004°17'815.1
2019-Jun-19 14:43N 58°43' W 004°00'315.1
2019-Jun-19 14:31N 58°43' W 003°54'714.8
2019-Jun-19 14:00N 58°43' W 003°40'814.6
2019-Jun-19 13:28N 58°43' W 003°25'814.5
2019-Jun-19 12:56N 58°43' W 003°10'612.9
2019-Jun-19 12:30N 58°43' W 002°59'15913.8
2019-Jun-19 00:59N 58°19' E 002°02'713.7
2019-Jun-19 00:30N 58°18' E 002°15'713.7
2019-Jun-19 00:00N 58°17' E 002°27'1413.7
2019-Jun-18 23:01N 58°15' E 002°53'713.9
2019-Jun-18 22:31N 58°13' E 003°06'713.8
2019-Jun-18 22:00N 58°12' E 003°19'713.7
2019-Jun-18 21:30N 58°10' E 003°31'713.6
2019-Jun-18 20:59N 58°09' E 003°45'713.8
2019-Jun-18 20:30N 58°08' E 003°57'713.7
2019-Jun-18 20:00N 58°06' E 004°10'713.6
2019-Jun-18 19:30N 58°05' E 004°22'713.7
2019-Jun-18 19:00N 58°04' E 004°35'713.7
2019-Jun-18 18:30N 58°02' E 004°48'713.9
2019-Jun-18 18:00N 58°00' E 005°00'714.2
2019-Jun-18 17:30N 57°59' E 005°14'713.9
2019-Jun-18 17:00N 57°58' E 005°26'714.1
2019-Jun-18 16:30N 57°56' E 005°39'714.7
2019-Jun-18 16:00N 57°55' E 005°53'714.1
2019-Jun-18 15:30N 57°53' E 006°06'713.8
2019-Jun-18 15:00N 57°51' E 006°19'714.2
2019-Jun-18 14:30N 57°50' E 006°32'713.9
2019-Jun-18 14:00N 57°48' E 006°44'714.5
2019-Jun-18 13:30N 57°48' E 006°57'714.3
2019-Jun-18 13:00N 57°47' E 007°11'714.3
2019-Jun-18 12:30N 57°47' E 007°25'714.1
2019-Jun-18 12:01N 57°47' E 007°38'714.2
2019-Jun-18 11:30N 57°46' E 007°51'714.4
2019-Jun-18 11:01N 57°46' E 008°04'714.0
2019-Jun-18 10:31N 57°46' E 008°17'713.9
2019-Jun-18 10:00N 57°46' E 008°31'713.8
2019-Jun-18 09:30N 57°47' E 008°43'713.6
2019-Jun-18 09:00N 57°47' E 008°56'713.4
2019-Jun-18 08:30N 57°47' E 009°09'613.0
2019-Jun-18 08:00N 57°48' E 009°21'713.1
2019-Jun-18 07:30N 57°48' E 009°33'713.5
2019-Jun-18 07:00N 57°48' E 009°46'913.8
2019-Jun-18 06:23N 57°48' E 010°02'513.8
2019-Jun-18 06:00N 57°48' E 010°12'713.8
2019-Jun-18 05:30N 57°48' E 010°25'612.7
2019-Jun-18 05:00N 57°48' E 010°37'611.6
2019-Jun-18 04:31N 57°47' E 010°47'713.7
2019-Jun-18 04:01N 57°43' E 010°57'714.0
2019-Jun-18 03:31N 57°38' E 011°07'714.3
2019-Jun-18 03:00N 57°33' E 011°16'714.3
2019-Jun-18 02:30N 57°28' E 011°26'715.0
2019-Jun-18 02:01N 57°21' E 011°30'715.0
2019-Jun-18 01:31N 57°14' E 011°35'714.8
2019-Jun-18 01:01N 57°07' E 011°40'2314.6
2019-Jun-17 23:26N 56°45' E 011°54'3014.3
2019-Jun-17 21:20N 56°19' E 011°26'179 8.2
2019-Jun-16 23:30N 54°46' E 015°56'4413.5
2019-Jun-16 20:15N 54°53' E 017°11'413.4
2019-Jun-16 19:59N 54°54' E 017°17'613.6
2019-Jun-16 19:30N 54°56' E 017°28'813.5
2019-Jun-16 18:56N 54°57' E 017°41'713.3
2019-Jun-16 18:23N 54°58' E 017°54'1013.1
2019-Jun-16 17:38N 54°58' E 018°11'213.0
2019-Jun-16 17:30N 54°58' E 018°14'713.3
2019-Jun-16 17:00N 54°58' E 018°25'612.9
2019-Jun-16 16:30N 54°56' E 018°36'612.7
2019-Jun-16 16:00N 54°52' E 018°45'612.2
2019-Jun-16 15:30N 54°49' E 018°54'611.4
2019-Jun-16 15:01N 54°43' E 018°58'714.2
2019-Jun-16 14:31N 54°37' E 018°55'713.7
2019-Jun-16 14:01N 54°32' E 018°47'611.8
2019-Jun-16 13:30N 54°32' E 018°37'3 6.2
2019-Jun-16 13:01N 54°32' E 018°31'1 1.1
2019-Jun-16 12:27N 54°33' E 018°30'0 0.0
2019-Jun-16 11:57N 54°33' E 018°30'0 0.0
2019-Jun-16 11:27N 54°33' E 018°30'0 0.0
2019-Jun-16 11:00N 54°33' E 018°30'0 0.0
2019-Jun-16 10:30N 54°33' E 018°30'0 0.0
2019-Jun-16 09:59N 54°33' E 018°30'0 0.0
2019-Jun-16 09:29N 54°33' E 018°30'0 0.0
2019-Jun-16 08:59N 54°33' E 018°30'0 0.0
2019-Jun-16 08:29N 54°33' E 018°30'0 0.0
2019-Jun-16 07:59N 54°33' E 018°30'0 0.0
2019-Jun-16 07:29N 54°33' E 018°30'0 0.0
2019-Jun-16 06:59N 54°33' E 018°30'0 0.0
2019-Jun-16 06:26N 54°33' E 018°30'0 0.0
2019-Jun-16 05:59N 54°33' E 018°30'0 0.0
2019-Jun-16 05:29N 54°33' E 018°30'0 0.0
2019-Jun-16 04:59N 54°33' E 018°30'0 0.0
2019-Jun-16 04:29N 54°33' E 018°30'0 0.0
2019-Jun-16 03:59N 54°33' E 018°30'0 0.0
2019-Jun-16 03:29N 54°33' E 018°30'0 0.0
2019-Jun-16 02:59N 54°33' E 018°30'0 0.0
2019-Jun-16 02:29N 54°33' E 018°30'0 0.0
2019-Jun-16 01:59N 54°33' E 018°30'0 0.0
2019-Jun-16 01:29N 54°33' E 018°30'0 0.0
2019-Jun-16 00:59N 54°33' E 018°30'0 0.0
2019-Jun-16 00:29N 54°33' E 018°30'0 0.0
2019-Jun-15 23:59N 54°33' E 018°30'0 0.0
2019-Jun-15 23:29N 54°33' E 018°30'0 0.0
2019-Jun-15 22:59N 54°33' E 018°30'0 0.0
2019-Jun-15 22:29N 54°33' E 018°30'0 0.0
2019-Jun-15 21:59N 54°33' E 018°30'0 0.0
2019-Jun-15 21:29N 54°33' E 018°30'0 0.0
2019-Jun-15 20:59N 54°33' E 018°30'0 0.0
2019-Jun-15 20:29N 54°33' E 018°30'0 0.0
2019-Jun-15 19:59N 54°33' E 018°30'0 0.0
2019-Jun-15 19:29N 54°33' E 018°30'0 0.0
2019-Jun-15 18:59N 54°33' E 018°30'0 0.0
2019-Jun-15 18:29N 54°33' E 018°30'0 0.0
2019-Jun-15 17:59N 54°33' E 018°30'0 0.0
2019-Jun-15 17:29N 54°33' E 018°30'0 0.0
2019-Jun-15 16:59N 54°33' E 018°30'0 0.0
2019-Jun-15 16:29N 54°33' E 018°30'0 0.0
2019-Jun-15 15:59N 54°33' E 018°30'0 0.0
2019-Jun-15 15:29N 54°33' E 018°30'0 0.0
2019-Jun-15 14:56N 54°33' E 018°30'0 0.0
2019-Jun-15 14:29N 54°33' E 018°30'0 0.0
2019-Jun-15 13:59N 54°33' E 018°30'0 0.0
2019-Jun-15 13:26N 54°33' E 018°30'0 0.0
2019-Jun-15 12:59N 54°33' E 018°30'0 0.0
2019-Jun-15 12:26N 54°33' E 018°30'0 0.0
2019-Jun-15 11:59N 54°33' E 018°30'0 0.0
2019-Jun-15 11:29N 54°33' E 018°30'0 0.0
2019-Jun-15 10:59N 54°33' E 018°30'0 0.0
2019-Jun-15 10:29N 54°33' E 018°30'0 0.0
2019-Jun-15 09:59N 54°33' E 018°30'0 0.0
2019-Jun-15 09:29N 54°33' E 018°30'0 0.0
2019-Jun-15 08:59N 54°33' E 018°30'0 0.0
2019-Jun-15 08:29N 54°33' E 018°30'0 0.0
2019-Jun-15 07:59N 54°33' E 018°30'0 0.0
2019-Jun-15 07:29N 54°33' E 018°30'0 0.0
2019-Jun-15 06:56N 54°33' E 018°30'0 0.0
2019-Jun-15 06:29N 54°33' E 018°30'0 0.0
2019-Jun-15 05:59N 54°33' E 018°30'0 0.0
2019-Jun-15 05:29N 54°33' E 018°30'0 0.0
2019-Jun-15 04:56N 54°33' E 018°30'0 0.0
2019-Jun-15 04:29N 54°33' E 018°30'0 0.0
2019-Jun-15 03:59N 54°33' E 018°30'0 0.0
2019-Jun-15 03:29N 54°33' E 018°30'0 0.0
2019-Jun-15 02:59N 54°33' E 018°30'0 0.0
2019-Jun-15 02:26N 54°33' E 018°30'0 0.0
2019-Jun-15 01:59N 54°33' E 018°30'0 0.0
2019-Jun-15 01:29N 54°33' E 018°30'0 0.0
2019-Jun-15 00:59N 54°33' E 018°30'0 0.0
2019-Jun-15 00:26N 54°33' E 018°30'0 0.0
2019-Jun-14 23:59N 54°33' E 018°30'0 0.0
2019-Jun-14 23:29N 54°33' E 018°30'0 0.0
2019-Jun-14 22:58N 54°33' E 018°30'0 0.0
2019-Jun-14 22:28N 54°33' E 018°30'0 0.0
2019-Jun-14 21:58N 54°33' E 018°30'0 0.0
2019-Jun-14 21:28N 54°33' E 018°30'0 0.0
2019-Jun-14 20:58N 54°33' E 018°30'0 0.0
2019-Jun-14 20:25N 54°33' E 018°30'0 0.0
2019-Jun-14 19:58N 54°33' E 018°30'0 0.0
2019-Jun-14 19:28N 54°33' E 018°30'0 0.0
2019-Jun-14 18:58N 54°33' E 018°30'0 0.0
2019-Jun-14 18:22N 54°33' E 018°30'0 0.0
2019-Jun-14 17:58N 54°33' E 018°30'0 0.0
2019-Jun-14 17:28N 54°33' E 018°30'0 0.0
2019-Jun-14 16:58N 54°33' E 018°30'0 0.0
2019-Jun-14 16:28N 54°33' E 018°30'0 0.0
2019-Jun-14 15:58N 54°33' E 018°30'0 0.0
2019-Jun-14 15:28N 54°33' E 018°30'0 0.0
2019-Jun-14 14:58N 54°33' E 018°30'0 0.0
2019-Jun-14 14:28N 54°33' E 018°30'0 0.0
2019-Jun-14 13:58N 54°33' E 018°30'0 0.0
2019-Jun-14 13:28N 54°33' E 018°30'0 0.0
2019-Jun-14 12:58N 54°33' E 018°30'0 0.0
2019-Jun-14 12:28N 54°33' E 018°30'0 0.0
2019-Jun-14 11:58N 54°33' E 018°30'0 0.0
2019-Jun-14 11:25N 54°33' E 018°30'0 0.0
2019-Jun-14 10:55N 54°33' E 018°30'0 0.0
2019-Jun-14 10:25N 54°33' E 018°30'0 0.0
2019-Jun-14 09:58N 54°33' E 018°30'0 0.0
2019-Jun-14 09:22N 54°33' E 018°30'0 0.0
2019-Jun-14 08:55N 54°33' E 018°30'0 0.0
2019-Jun-14 08:25N 54°33' E 018°30'0 0.0
2019-Jun-14 07:55N 54°33' E 018°30'0 0.0
2019-Jun-14 07:25N 54°33' E 018°30'0 0.0
2019-Jun-14 06:58N 54°33' E 018°30'0 0.0
2019-Jun-14 06:28N 54°33' E 018°30'0 0.0
2019-Jun-14 05:55N 54°33' E 018°30'0 0.1
2019-Jun-14 05:31N 54°33' E 018°30'1 2.9
2019-Jun-14 05:01N 54°32' E 018°33'4 7.6
2019-Jun-14 04:31N 54°31' E 018°39'0 0.4
2019-Jun-14 03:58N 54°31' E 018°39'0 0.1
2019-Jun-14 03:28N 54°31' E 018°39'0 0.1
2019-Jun-14 02:58N 54°31' E 018°39'0 0.0
2019-Jun-14 02:28N 54°31' E 018°39'0 0.1
2019-Jun-14 01:58N 54°31' E 018°39'0 0.1
2019-Jun-14 01:28N 54°31' E 018°39'0 0.1
2019-Jun-14 00:58N 54°31' E 018°39'0 0.0
2019-Jun-14 00:28N 54°31' E 018°39'0 0.0
2019-Jun-13 23:58N 54°31' E 018°39'0 0.0
2019-Jun-13 23:28N 54°31' E 018°39'0 0.0
2019-Jun-13 22:58N 54°31' E 018°39'0 0.3
2019-Jun-13 22:28N 54°31' E 018°39'0 0.2
2019-Jun-13 21:58N 54°31' E 018°39'0 0.0
2019-Jun-13 21:25N 54°31' E 018°39'0 1.0
2019-Jun-13 21:01N 54°31' E 018°39'611.2
2019-Jun-13 20:31N 54°33' E 018°49'713.7
2019-Jun-13 20:00N 54°39' E 018°55'713.4
2019-Jun-13 19:30N 54°45' E 018°58'713.7
2019-Jun-13 19:00N 54°52' E 018°59'714.0
2019-Jun-13 18:30N 54°59' E 019°01'714.3
2019-Jun-13 18:00N 55°06' E 019°02'2913.6
2019-Jun-13 15:52N 55°35' E 019°09'25311.4
2019-Jun-12 17:39N 59°47' E 019°40'212.4
2019-Jun-12 17:30N 59°49' E 019°38'612.3
2019-Jun-12 17:00N 59°53' E 019°30'611.9
2019-Jun-12 16:30N 59°58' E 019°22'611.4
2019-Jun-12 16:00N 60°02' E 019°15'611.4
2019-Jun-12 15:30N 60°07' E 019°07'613.0
2019-Jun-12 15:00N 60°12' E 018°60'714.4
2019-Jun-12 14:30N 60°19' E 018°60'612.8
2019-Jun-12 14:01N 60°25' E 018°59'611.2
2019-Jun-12 13:30N 60°31' E 019°02'6512.2
2019-Jun-12 08:09N 61°07' E 020°54'212.3
2019-Jun-12 08:00N 61°08' E 020°57'510.0
2019-Jun-12 07:30N 61°08' E 021°07'5 9.8
2019-Jun-12 07:01N 61°06' E 021°16'4 8.9
2019-Jun-12 06:30N 61°07' E 021°25'0 0.7
2019-Jun-12 06:00N 61°08' E 021°26'0 0.0
2019-Jun-12 05:30N 61°08' E 021°26'0 0.0
2019-Jun-12 05:00N 61°08' E 021°26'0 0.0
2019-Jun-12 04:30N 61°08' E 021°26'0 0.0
2019-Jun-12 04:00N 61°08' E 021°26'0 0.0
2019-Jun-12 03:30N 61°08' E 021°26'0 0.0
2019-Jun-12 03:00N 61°08' E 021°26'0 0.0
2019-Jun-12 01:57N 61°08' E 021°26'0 0.0
2019-Jun-12 01:30N 61°08' E 021°26'0 0.0
2019-Jun-12 00:57N 61°08' E 021°26'0 0.0
2019-Jun-12 00:27N 61°08' E 021°26'0 0.0
2019-Jun-11 23:54N 61°08' E 021°26'0 0.0
2019-Jun-11 23:30N 61°08' E 021°26'0 0.0
2019-Jun-11 23:00N 61°08' E 021°26'0 0.0
2019-Jun-11 22:29N 61°08' E 021°26'0 0.0
2019-Jun-11 21:59N 61°08' E 021°26'0 0.0
2019-Jun-11 21:29N 61°08' E 021°26'0 0.0
2019-Jun-11 20:59N 61°08' E 021°26'0 0.0
2019-Jun-11 20:29N 61°08' E 021°26'0 0.0
2019-Jun-11 19:59N 61°08' E 021°26'0 0.0
2019-Jun-11 19:29N 61°08' E 021°26'0 0.0
2019-Jun-11 18:59N 61°08' E 021°26'0 0.0
2019-Jun-11 18:26N 61°08' E 021°26'0 0.0
2019-Jun-11 17:56N 61°08' E 021°26'0 0.0
2019-Jun-11 17:29N 61°08' E 021°26'0 0.0
2019-Jun-11 16:56N 61°08' E 021°26'0 0.0
2019-Jun-11 16:29N 61°08' E 021°26'0 0.0
2019-Jun-11 15:56N 61°08' E 021°26'0 0.0
2019-Jun-11 15:29N 61°08' E 021°26'0 0.0
2019-Jun-11 14:56N 61°08' E 021°26'0 0.0
2019-Jun-11 14:26N 61°08' E 021°26'0 0.0
2019-Jun-11 13:56N 61°08' E 021°26'0 0.0
2019-Jun-11 13:29N 61°08' E 021°26'0 0.0
2019-Jun-11 12:56N 61°08' E 021°26'0 0.0
2019-Jun-11 12:26N 61°08' E 021°26'0 0.0
2019-Jun-11 11:56N 61°08' E 021°26'0 0.0
2019-Jun-11 11:29N 61°08' E 021°26'0 0.0
2019-Jun-11 10:59N 61°08' E 021°26'0 0.0
2019-Jun-11 10:29N 61°08' E 021°26'0 0.0
2019-Jun-11 09:59N 61°08' E 021°26'0 0.0
2019-Jun-11 09:29N 61°08' E 021°26'0 0.0
2019-Jun-11 08:59N 61°08' E 021°26'0 0.0
2019-Jun-11 08:29N 61°08' E 021°26'0 0.0
2019-Jun-11 07:59N 61°08' E 021°26'0 0.0
2019-Jun-11 07:29N 61°08' E 021°26'0 0.0
2019-Jun-11 06:59N 61°08' E 021°26'0 0.0
2019-Jun-11 06:29N 61°08' E 021°26'0 0.0
2019-Jun-11 05:59N 61°08' E 021°26'0 0.0
2019-Jun-11 05:29N 61°08' E 021°26'0 0.0
2019-Jun-11 04:59N 61°08' E 021°26'0 0.0
2019-Jun-11 04:29N 61°08' E 021°26'0 0.0
2019-Jun-11 03:59N 61°08' E 021°26'0 0.0
2019-Jun-11 03:29N 61°08' E 021°26'0 0.0
2019-Jun-11 02:59N 61°08' E 021°26'0 0.0
2019-Jun-11 02:29N 61°08' E 021°26'0 0.0
2019-Jun-11 01:59N 61°08' E 021°26'0 0.0
2019-Jun-11 01:29N 61°08' E 021°26'0 0.0
2019-Jun-11 00:59N 61°08' E 021°26'0 0.0
2019-Jun-11 00:29N 61°08' E 021°26'0 0.0
2019-Jun-10 23:59N 61°08' E 021°26'0 0.0
2019-Jun-10 23:29N 61°08' E 021°26'0 0.0
2019-Jun-10 22:59N 61°08' E 021°26'0 0.0
2019-Jun-10 22:29N 61°08' E 021°26'0 0.0
2019-Jun-10 21:59N 61°08' E 021°26'0 0.0
2019-Jun-10 21:29N 61°08' E 021°26'0 0.2
2019-Jun-10 20:59N 61°08' E 021°26'0 0.0
2019-Jun-10 20:29N 61°08' E 021°26'0 0.0
2019-Jun-10 19:59N 61°08' E 021°26'0 0.0
2019-Jun-10 19:26N 61°08' E 021°26'0 0.0
2019-Jun-10 18:59N 61°08' E 021°26'0 0.0
2019-Jun-10 18:29N 61°08' E 021°26'0 0.0
2019-Jun-10 17:59N 61°08' E 021°26'0 0.0
2019-Jun-10 17:29N 61°08' E 021°26'0 0.0
2019-Jun-10 16:59N 61°08' E 021°26'0 0.0
2019-Jun-10 16:29N 61°08' E 021°26'0 0.0
2019-Jun-10 15:59N 61°08' E 021°26'0 0.0
2019-Jun-10 15:29N 61°08' E 021°26'0 0.0
2019-Jun-10 14:59N 61°08' E 021°26'0 0.0
2019-Jun-10 14:29N 61°08' E 021°26'0 0.0
2019-Jun-10 13:59N 61°08' E 021°26'0 0.0
2019-Jun-10 13:29N 61°08' E 021°26'0 0.0
2019-Jun-10 12:59N 61°08' E 021°26'0 0.0
2019-Jun-10 12:29N 61°08' E 021°26'0 0.0
2019-Jun-10 11:59N 61°08' E 021°26'0 0.0
2019-Jun-10 11:29N 61°08' E 021°26'0 0.0
2019-Jun-10 10:58N 61°08' E 021°26'0 0.0
2019-Jun-10 10:28N 61°08' E 021°26'0 0.0
2019-Jun-10 09:58N 61°08' E 021°26'0 0.0
2019-Jun-10 09:29N 61°08' E 021°26'0 0.0
2019-Jun-10 08:58N 61°08' E 021°26'0 0.0
2019-Jun-10 08:28N 61°08' E 021°26'0 0.0
2019-Jun-10 07:58N 61°08' E 021°26'0 0.0
2019-Jun-10 07:28N 61°08' E 021°26'0 0.0
2019-Jun-10 06:58N 61°08' E 021°26'0 0.0
2019-Jun-10 06:28N 61°08' E 021°26'0 0.0
2019-Jun-10 05:58N 61°08' E 021°26'0 0.0
2019-Jun-10 05:28N 61°08' E 021°26'0 0.0
2019-Jun-10 04:55N 61°08' E 021°26'0 0.0
2019-Jun-10 04:28N 61°08' E 021°26'0 0.0
2019-Jun-10 03:55N 61°08' E 021°26'0 0.0
2019-Jun-10 03:22N 61°08' E 021°26'0 0.0
2019-Jun-10 02:58N 61°08' E 021°26'0 0.0
2019-Jun-10 02:22N 61°08' E 021°26'0 0.0
2019-Jun-10 01:43N 61°08' E 021°26'0 0.0
2019-Jun-10 01:28N 61°08' E 021°26'0 0.0
2019-Jun-10 00:55N 61°08' E 021°26'0 0.0
2019-Jun-10 00:28N 61°08' E 021°26'0 0.0
2019-Jun-09 23:55N 61°08' E 021°26'0 0.0
2019-Jun-09 23:25N 61°08' E 021°26'0 0.0
2019-Jun-09 22:58N 61°08' E 021°26'0 0.0
2019-Jun-09 22:28N 61°08' E 021°26'0 0.0
2019-Jun-09 21:58N 61°08' E 021°26'0 0.0
2019-Jun-09 21:28N 61°08' E 021°26'0 0.0
2019-Jun-09 20:58N 61°08' E 021°26'0 0.0
2019-Jun-09 20:28N 61°08' E 021°26'0 0.0
2019-Jun-09 19:58N 61°08' E 021°26'0 0.0
2019-Jun-09 19:28N 61°08' E 021°26'0 0.0
2019-Jun-09 18:58N 61°08' E 021°26'0 0.0
2019-Jun-09 18:25N 61°08' E 021°26'0 0.0
2019-Jun-09 17:55N 61°08' E 021°26'0 0.0
2019-Jun-09 17:28N 61°08' E 021°26'0 0.0
2019-Jun-09 16:55N 61°08' E 021°26'0 0.0
2019-Jun-09 16:25N 61°08' E 021°26'0 0.0
2019-Jun-09 15:58N 61°08' E 021°26'0 0.0
2019-Jun-09 15:25N 61°08' E 021°26'0 0.0
2019-Jun-09 14:49N 61°08' E 021°26'0 0.0
2019-Jun-09 14:28N 61°08' E 021°26'0 0.0
2019-Jun-09 13:58N 61°08' E 021°26'0 0.0
2019-Jun-09 13:28N 61°08' E 021°26'0 0.0
2019-Jun-09 12:46N 61°08' E 021°26'0 0.0
2019-Jun-09 12:28N 61°08' E 021°26'0 0.0
2019-Jun-09 11:58N 61°08' E 021°26'0 0.0
2019-Jun-09 11:28N 61°08' E 021°26'0 0.0
2019-Jun-09 10:58N 61°08' E 021°26'0 0.0
2019-Jun-09 10:28N 61°08' E 021°26'0 0.0
2019-Jun-09 09:58N 61°08' E 021°26'0 0.0
2019-Jun-09 09:28N 61°08' E 021°26'0 0.0
2019-Jun-09 08:58N 61°08' E 021°26'0 0.0
2019-Jun-09 08:28N 61°08' E 021°26'0 0.0
2019-Jun-09 07:58N 61°08' E 021°26'0 0.0
2019-Jun-09 07:28N 61°08' E 021°26'0 0.0
2019-Jun-09 06:58N 61°08' E 021°26'0 0.0
2019-Jun-09 06:28N 61°08' E 021°26'0 0.0
2019-Jun-09 05:58N 61°08' E 021°26'0 0.0
2019-Jun-09 05:28N 61°08' E 021°26'0 0.0
2019-Jun-09 04:58N 61°08' E 021°26'0 0.0
2019-Jun-09 03:58N 61°08' E 021°26'0 0.0
2019-Jun-09 03:28N 61°08' E 021°26'0 0.0
2019-Jun-09 02:58N 61°08' E 021°26'0 0.0
2019-Jun-09 02:31N 61°08' E 021°26'0 0.0
2019-Jun-09 01:58N 61°08' E 021°26'0 0.0
2019-Jun-09 01:31N 61°08' E 021°26'0 0.0
2019-Jun-09 01:01N 61°08' E 021°26'0 0.0
2019-Jun-09 00:31N 61°08' E 021°26'0 0.0
2019-Jun-09 00:00N 61°08' E 021°26'0 0.0
2019-Jun-08 23:30N 61°08' E 021°26'0 0.0
2019-Jun-08 23:00N 61°08' E 021°26'0 0.0
2019-Jun-08 22:30N 61°08' E 021°26'0 0.0
2019-Jun-08 22:00N 61°08' E 021°26'0 0.0
2019-Jun-08 21:30N 61°08' E 021°26'0 0.0
2019-Jun-08 21:00N 61°08' E 021°26'0 0.0
2019-Jun-08 20:30N 61°08' E 021°26'0 0.0
2019-Jun-08 20:00N 61°08' E 021°26'0 0.0
2019-Jun-08 19:30N 61°08' E 021°26'0 0.0
2019-Jun-08 19:00N 61°08' E 021°26'0 0.0
2019-Jun-08 18:30N 61°08' E 021°26'0 0.0
2019-Jun-08 18:00N 61°08' E 021°26'0 0.0
2019-Jun-08 17:27N 61°08' E 021°26'0 0.0
2019-Jun-08 17:00N 61°08' E 021°26'0 0.0
2019-Jun-08 16:30N 61°08' E 021°26'0 0.0
2019-Jun-08 16:00N 61°08' E 021°26'0 0.0
2019-Jun-08 15:18N 61°08' E 021°26'0 0.0
2019-Jun-08 14:51N 61°08' E 021°26'0 0.0
2019-Jun-08 13:51N 61°08' E 021°26'0 0.0
2019-Jun-08 13:18N 61°08' E 021°26'0 0.0
2019-Jun-08 12:54N 61°08' E 021°26'0 0.0
2019-Jun-08 12:18N 61°08' E 021°26'0 0.0
2019-Jun-08 12:00N 61°08' E 021°26'0 0.0
2019-Jun-08 11:30N 61°08' E 021°26'0 0.0
2019-Jun-08 11:00N 61°08' E 021°26'0 0.0
2019-Jun-08 10:30N 61°08' E 021°26'0 0.0
2019-Jun-08 10:00N 61°08' E 021°26'0 0.0
2019-Jun-08 09:30N 61°08' E 021°26'0 0.0
2019-Jun-08 09:00N 61°08' E 021°26'0 0.0
2019-Jun-08 08:30N 61°08' E 021°26'0 0.0
2019-Jun-08 08:00N 61°08' E 021°26'0 0.0
2019-Jun-08 07:30N 61°08' E 021°26'0 0.0
2019-Jun-08 07:00N 61°08' E 021°26'0 0.0
2019-Jun-08 06:30N 61°08' E 021°26'0 0.0
2019-Jun-08 06:00N 61°08' E 021°26'0 0.0
2019-Jun-08 05:30N 61°08' E 021°26'0 0.0
2019-Jun-08 05:00N 61°08' E 021°26'0 0.0
2019-Jun-08 04:30N 61°08' E 021°26'0 0.0
2019-Jun-08 04:00N 61°08' E 021°26'0 0.0
2019-Jun-08 03:30N 61°08' E 021°26'0 0.0
2019-Jun-08 03:00N 61°08' E 021°26'0 0.0
2019-Jun-08 02:30N 61°08' E 021°26'0 0.0
2019-Jun-08 02:00N 61°08' E 021°26'0 0.0
2019-Jun-08 01:30N 61°08' E 021°26'0 0.0
2019-Jun-08 01:00N 61°08' E 021°26'0 0.0
2019-Jun-08 00:30N 61°08' E 021°26'0 0.0
2019-Jun-08 00:00N 61°08' E 021°26'0 0.0
2019-Jun-07 23:30N 61°08' E 021°26'0 0.0
2019-Jun-07 23:00N 61°08' E 021°26'0 0.0
2019-Jun-07 22:30N 61°08' E 021°26'0 0.0
2019-Jun-07 22:00N 61°08' E 021°26'0 0.0
2019-Jun-07 21:30N 61°08' E 021°26'0 0.0
2019-Jun-07 21:00N 61°08' E 021°26'0 0.0
2019-Jun-07 20:30N 61°08' E 021°26'0 0.0
2019-Jun-07 20:00N 61°08' E 021°26'0 0.0
2019-Jun-07 19:30N 61°08' E 021°26'0 0.0
2019-Jun-07 19:00N 61°08' E 021°26'0 0.0
2019-Jun-07 18:30N 61°08' E 021°26'0 0.0
2019-Jun-07 18:00N 61°08' E 021°26'0 0.0
2019-Jun-07 17:30N 61°08' E 021°26'0 0.0
2019-Jun-07 16:57N 61°08' E 021°26'0 0.0
2019-Jun-07 16:27N 61°08' E 021°26'0 0.0
2019-Jun-07 15:57N 61°08' E 021°26'0 0.0
2019-Jun-07 15:27N 61°08' E 021°26'0 0.0
2019-Jun-07 14:57N 61°08' E 021°26'0 0.0
2019-Jun-07 14:30N 61°08' E 021°26'0 0.0
2019-Jun-07 14:00N 61°08' E 021°26'0 0.0
2019-Jun-07 13:29N 61°08' E 021°26'0 0.0
2019-Jun-07 12:59N 61°08' E 021°26'0 0.0
2019-Jun-07 12:26N 61°08' E 021°26'0 0.0
2019-Jun-07 11:57N 61°08' E 021°26'0 0.0
2019-Jun-07 11:29N 61°08' E 021°26'0 0.0
2019-Jun-07 10:59N 61°08' E 021°26'0 0.0
2019-Jun-07 10:29N 61°08' E 021°26'0 0.0
2019-Jun-07 09:59N 61°08' E 021°26'0 0.0
2019-Jun-07 09:29N 61°08' E 021°26'0 0.0
2019-Jun-07 08:56N 61°08' E 021°26'0 0.0
2019-Jun-07 08:30N 61°08' E 021°26'2 4.8
2019-Jun-07 08:01N 61°06' E 021°22'611.5
2019-Jun-07 07:31N 61°07' E 021°10'612.2
2019-Jun-07 07:01N 61°11' E 021°00'  

Dump ship's entire track history